Time;durP1;ratioP1;P1;durP2;ratioP2;P2;SDS_P1;SDS_P2;PMS_P1;PMS_P2;Temp;Humidity;BMP_temperature;BMP_pressure;BME280_temperature;BME280_humidity;BME280_pressure;Samples;Min_cycle;Max_cycle;Signal;HPM_P1;HPM_P2
2023/04/11 00:00:30;;;;;;;16.33;4.80;;;;;;;;;;5020251;28;20045;-68
2023/04/11 00:03:02;;;;;;;13.48;5.05;;;;;;;;;;5005740;28;20064;-68
2023/04/11 00:05:32;;;;;;;12.63;3.67;;;;;;;;;;5029824;28;20043;-68
2023/04/11 00:07:58;;;;;;;13.80;4.20;;;;;;;;;;5043696;28;20044;-68
2023/04/11 00:10:24;;;;;;;17.77;5.53;;;;;;;;;;5046110;28;20055;-68
2023/04/11 00:12:55;;;;;;;16.13;4.68;;;;;;;;;;5009764;28;20499;-68
2023/04/11 00:15:22;;;;;;;11.35;3.75;;;;;;;;;;5028330;28;20056;-68
2023/04/11 00:17:49;;;;;;;16.67;4.57;;;;;;;;;;5029245;28;20040;-68
2023/04/11 00:20:15;;;;;;;14.70;5.28;;;;;;;;;;5011011;28;20059;-68
2023/04/11 00:22:42;;;;;;;7.47;3.38;;;;;;;;;;5026766;28;20045;-68
2023/04/11 00:25:08;;;;;;;11.27;4.05;;;;;;;;;;5023793;28;20143;-68
2023/04/11 00:27:35;;;;;;;15.68;3.55;;;;;;;;;;5027722;28;20041;-68
2023/04/11 00:30:01;;;;;;;18.60;4.15;;;;;;;;;;5031027;28;20084;-68
2023/04/11 00:32:27;;;;;;;15.18;4.38;;;;;;;;;;5029292;28;20049;-68
2023/04/11 00:34:54;;;;;;;11.07;3.90;;;;;;;;;;5029787;28;20044;-68
2023/04/11 00:37:20;;;;;;;15.70;3.70;;;;;;;;;;5050237;28;20064;-68
2023/04/11 00:39:51;;;;;;;13.52;4.00;;;;;;;;;;5032629;28;20037;-68
2023/04/11 00:42:18;;;;;;;10.85;4.10;;;;;;;;;;5031577;28;20033;-68
2023/04/11 00:44:44;;;;;;;18.98;4.70;;;;;;;;;;5032073;28;20091;-68
2023/04/11 00:47:11;;;;;;;10.65;3.47;;;;;;;;;;5032848;28;20469;-68
2023/04/11 00:49:37;;;;;;;11.65;3.25;;;;;;;;;;5029854;28;20524;-68
2023/04/11 00:52:04;;;;;;;8.63;2.80;;;;;;;;;;5032390;28;20463;-69
2023/04/11 00:54:31;;;;;;;15.88;3.47;;;;;;;;;;5016424;28;20045;-68
2023/04/11 00:57:01;;;;;;;5.10;2.33;;;;;;;;;;5047810;28;20032;-68
2023/04/11 00:59:28;;;;;;;5.78;2.05;;;;;;;;;;5050442;28;20453;-68
2023/04/11 01:01:56;;;;;;;10.20;2.47;;;;;;;;;;5032627;28;20048;-68
2023/04/11 01:04:22;;;;;;;5.85;2.08;;;;;;;;;;5049921;28;20124;-68
2023/04/11 01:06:51;;;;;;;6.50;2.10;;;;;;;;;;5030535;28;20491;-68
2023/04/11 01:09:20;;;;;;;6.60;2.03;;;;;;;;;;5027430;28;20044;-68
2023/04/11 01:11:47;;;;;;;5.75;1.85;;;;;;;;;;5032211;28;20098;-68
2023/04/11 01:14:13;;;;;;;5.63;2.20;;;;;;;;;;5032980;28;20075;-68
2023/04/11 01:16:40;;;;;;;8.07;2.45;;;;;;;;;;5034089;28;20041;-68
2023/04/11 01:19:06;;;;;;;3.65;1.55;;;;;;;;;;5050195;28;20205;-68
2023/04/11 01:21:34;;;;;;;5.03;1.70;;;;;;;;;;5049711;28;20056;-68
2023/04/11 01:24:02;;;;;;;8.80;2.08;;;;;;;;;;5050357;28;20037;-68
2023/04/11 01:26:29;;;;;;;8.25;2.22;;;;;;;;;;5031137;28;20656;-68
2023/04/11 01:28:56;;;;;;;6.50;2.05;;;;;;;;;;5032251;28;20466;-68
2023/04/11 01:31:22;;;;;;;6.60;2.80;;;;;;;;;;5049495;28;20048;-68
2023/04/11 01:33:48;;;;;;;9.38;2.83;;;;;;;;;;5031819;28;20532;-68
2023/04/11 01:36:15;;;;;;;5.57;2.30;;;;;;;;;;5049116;28;20060;-68
2023/04/11 01:38:41;;;;;;;5.40;2.00;;;;;;;;;;5034264;28;20149;-68
2023/04/11 01:41:07;;;;;;;4.28;2.08;;;;;;;;;;5046191;28;20561;-68
2023/04/11 01:43:34;;;;;;;5.93;2.30;;;;;;;;;;5031681;28;20446;-68
2023/04/11 01:46:00;;;;;;;5.47;1.65;;;;;;;;;;5031223;28;20051;-67
2023/04/11 01:48:27;;;;;;;7.88;2.42;;;;;;;;;;5031800;28;20101;-68
2023/04/11 01:50:55;;;;;;;5.55;1.70;;;13.40;99.60;;;;;;5046938;28;20212;-68
2023/04/11 01:53:20;;;;;;;5.20;1.40;;;8.60;99.90;;;;;;5029515;28;20052;-68
2023/04/11 01:55:46;;;;;;;5.05;1.85;;;8.50;99.90;;;;;;5032117;28;20049;-68
2023/04/11 01:58:12;;;;;;;7.22;1.42;;;8.50;99.90;;;;;;5029377;28;20194;-67
2023/04/11 02:00:38;;;;;;;3.97;1.35;;;;;;;;;;5032397;28;20507;-69
2023/04/11 02:03:04;;;;;;;3.63;1.27;;;;;;;;;;5048819;28;20104;-68
2023/04/11 02:05:30;;;;;;;6.90;1.77;;;;;;;;;;5031430;28;20029;-69
2023/04/11 02:07:56;;;;;;;10.30;2.22;;;;;;;;;;5050614;28;20502;-68
2023/04/11 02:10:23;;;;;;;5.50;1.88;;;;;;;;;;5025752;28;20048;-68
2023/04/11 02:12:49;;;;;;;3.40;1.38;;;;;;;;;;5039200;28;20045;-69
2023/04/11 02:15:14;;;;;;;3.55;1.65;;;8.50;99.90;;;;;;5007079;28;20049;-68
2023/04/11 02:17:44;;;;;;;5.30;1.75;;;8.50;99.90;;;;;;5041390;28;20034;-68
2023/04/11 02:20:14;;;;;;;6.30;2.25;;;;;;;;;;5013511;28;20036;-68
2023/04/11 02:22:40;;;;;;;6.63;1.80;;;;;;;;;;5028716;28;20087;-67
2023/04/11 02:25:07;;;;;;;6.90;2.17;;;;;;;;;;5045045;28;20136;-69
2023/04/11 02:27:33;;;;;;;4.13;1.77;;;;;;;;;;5014538;28;20502;-69
2023/04/11 02:30:00;;;;;;;6.38;2.33;;;;;;;;;;5048732;28;20032;-69
2023/04/11 02:32:26;;;;;;;6.30;2.22;;;;;;;;;;5044442;28;20072;-69
2023/04/11 02:34:53;;;;;;;8.05;2.05;;;;;;;;;;5045332;28;20516;-69
2023/04/11 02:37:19;;;;;;;5.93;2.42;;;;;;;;;;5047079;28;20037;-68
2023/04/11 02:39:45;;;;;;;5.10;1.92;;;;;;;;;;5030139;28;20069;-69
2023/04/11 02:42:14;;;;;;;3.40;1.88;;;8.40;99.90;;;;;;5026145;28;20505;-68
2023/04/11 02:44:40;;;;;;;8.23;2.45;;;8.40;99.90;;;;;;5044508;28;20029;-69
2023/04/11 02:47:05;;;;;;;9.65;3.17;;;8.40;99.90;;;;;;5029104;28;20048;-68
2023/04/11 02:49:31;;;;;;;10.52;3.60;;;8.40;99.90;;;;;;5019941;28;20494;-68
2023/04/11 02:51:57;;;;;;;5.68;2.38;;;8.40;99.90;;;;;;5046231;28;20037;-68
2023/04/11 02:54:23;;;;;;;5.43;2.20;;;8.40;99.90;;;;;;5030371;28;20121;-68
2023/04/11 02:56:48;;;;;;;6.43;2.33;;;8.40;99.90;;;;;;5041729;28;20029;-69
2023/04/11 02:59:14;;;;;;;9.70;2.60;;;8.50;99.90;;;;;;5048063;28;20048;-69
2023/04/11 03:01:40;;;;;;;6.38;2.30;;;8.40;99.90;;;;;;5030504;28;20048;-68
2023/04/11 03:04:06;;;;;;;7.35;2.38;;;8.50;99.90;;;;;;5046730;28;20059;-68
2023/04/11 03:06:32;;;;;;;7.07;2.53;;;8.40;99.90;;;;;;5026437;28;20110;-69
2023/04/11 03:08:57;;;;;;;7.80;2.50;;;8.50;99.90;;;;;;5027519;28;20497;-68
2023/04/11 03:11:23;;;;;;;15.45;4.75;;;8.50;99.90;;;;;;5028485;28;20029;-69
2023/04/11 03:13:49;;;;;;;12.43;2.90;;;8.50;99.90;;;;;;5006455;28;20041;-69
2023/04/11 03:16:15;;;;;;;9.60;2.58;;;8.50;99.90;;;;;;5022271;28;20053;-68
2023/04/11 03:18:41;;;;;;;5.20;2.75;;;8.50;99.90;;;;;;5013757;28;20376;-69
2023/04/11 03:21:09;;;;;;;4.03;2.38;;;8.40;99.90;;;;;;5047901;28;20037;-69
2023/04/11 03:23:35;;;;;;;6.53;3.03;;;8.50;99.90;;;;;;5030540;28;20041;-69
2023/04/11 03:26:01;;;;;;;13.80;4.00;;;8.40;99.90;;;;;;5010667;28;20049;-69
2023/04/11 03:28:27;;;;;;;9.75;3.13;;;8.50;99.90;;;;;;5035789;28;20041;-69
2023/04/11 03:30:53;;;;;;;8.13;2.58;;;8.50;99.90;;;;;;5023136;28;20055;-68
2023/04/11 03:33:19;;;;;;;12.40;3.00;;;8.50;99.90;;;;;;5029557;28;20084;-68
2023/04/11 03:35:45;;;;;;;7.13;2.60;;;8.50;99.90;;;;;;5045266;28;20412;-68
2023/04/11 03:38:11;;;;;;;15.57;4.40;;;8.50;99.90;;;;;;5028529;28;20044;-68
2023/04/11 03:40:37;;;;;;;5.00;2.78;;;8.50;99.90;;;;;;5024593;28;20045;-69
2023/04/11 03:43:02;;;;;;;9.65;2.80;;;8.50;99.90;;;;;;5040464;28;20040;-69
2023/04/11 03:45:28;;;;;;;8.27;2.53;;;8.50;99.90;;;;;;5044056;28;20044;-69
2023/04/11 03:47:54;;;;;;;10.18;2.60;;;8.40;99.90;;;;;;5025192;28;20053;-69
2023/04/11 03:50:20;;;;;;;4.63;2.55;;;8.50;99.90;;;;;;5028513;28;20099;-68
2023/04/11 03:52:46;;;;;;;10.82;3.25;;;8.50;99.90;;;;;;5026050;28;20040;-68
2023/04/11 03:55:12;;;;;;;9.25;3.05;;;8.40;99.90;;;;;;5042589;28;20101;-68
2023/04/11 03:57:37;;;;;;;12.45;3.00;;;8.40;99.90;;;;;;5043245;28;20109;-69
2023/04/11 04:00:06;;;;;;;7.45;3.03;;;8.40;99.90;;;;;;5042658;28;20120;-68
2023/04/11 04:02:32;;;;;;;8.45;3.58;;;8.40;99.90;;;;;;5025511;28;20492;-68
2023/04/11 04:04:58;;;;;;;10.13;3.20;;;8.50;99.90;;;;;;5026616;28;20076;-69
2023/04/11 04:07:25;;;;;;;9.00;2.92;;;8.40;99.90;;;;;;5051876;28;20521;-69
2023/04/11 04:09:51;;;;;;;12.20;3.15;;;8.40;99.90;;;;;;5045487;28;20147;-69
2023/04/11 04:12:17;;;;;;;7.97;4.18;;;8.40;99.90;;;;;;5033693;28;20033;-70
2023/04/11 04:14:44;;;;;;;11.55;3.80;;;8.40;99.90;;;;;;5031511;28;20052;-68
2023/04/11 04:17:12;;;;;;;13.18;3.63;;;8.40;99.90;;;;;;5045836;28;20450;-69
2023/04/11 04:19:38;;;;;;;7.53;2.85;;;8.40;99.90;;;;;;5032088;28;20506;-68
2023/04/11 04:22:04;;;;;;;14.98;3.28;;;8.30;99.90;;;;;;5030182;28;20130;-68
2023/04/11 04:24:30;;;;;;;7.05;2.95;;;8.30;99.90;;;;;;5048274;28;20059;-68
2023/04/11 04:26:59;;;;;;;7.82;3.15;;;8.30;99.90;;;;;;5012161;28;20179;-68
2023/04/11 04:29:32;;;;;;;4.72;2.80;;;8.30;99.90;;;;;;5047878;28;20048;-68
2023/04/11 04:32:01;;;;;;;8.82;2.65;;;8.30;99.90;;;;;;5051737;28;20797;-68
2023/04/11 04:34:28;;;;;;;9.13;3.22;;;8.30;99.90;;;;;;5049838;28;20051;-68
2023/04/11 04:36:58;;;;;;;6.80;3.53;;;8.30;99.90;;;;;;5025300;28;20040;-68
2023/04/11 04:39:24;;;;;;;8.57;3.65;;;8.20;99.90;;;;;;5048995;28;20494;-68
2023/04/11 04:42:00;;;;;;;9.60;3.75;;;8.20;99.90;;;;;;5032773;28;20040;-68
2023/04/11 04:44:26;;;;;;;9.27;2.95;;;8.20;99.90;;;;;;5032785;28;20037;-68
2023/04/11 04:46:55;;;;;;;11.82;3.00;;;8.20;99.90;;;;;;5049130;28;20045;-69
2023/04/11 04:49:22;;;;;;;14.38;4.18;;;;;;;;;;5047565;28;20063;-69
2023/04/11 04:51:48;;;;;;;11.30;3.22;;;;;;;;;;5032664;28;20041;-69
2023/04/11 04:54:18;;;;;;;7.43;3.20;;;;;;;;;;5047967;28;21235;-68
2023/04/11 04:56:44;;;;;;;10.48;3.95;;;;;;;;;;5030055;28;20120;-68
2023/04/11 04:59:15;;;;;;;9.82;3.63;;;;;;;;;;5049286;28;20039;-69
2023/04/11 05:01:41;;;;;;;12.60;3.30;;;;;;;;;;5046797;28;20041;-69
2023/04/11 05:04:07;;;;;;;9.95;3.75;;;;;;;;;;5049426;28;20041;-69
2023/04/11 05:06:33;;;;;;;9.20;3.38;;;8.20;99.90;;;;;;5049657;28;20053;-69
2023/04/11 05:09:00;;;;;;;7.88;2.70;;;8.20;99.90;;;;;;5048681;28;20036;-69
2023/04/11 05:11:27;;;;;;;11.60;3.30;;;;;;;;;;5031656;28;20045;-69
2023/04/11 05:13:54;;;;;;;11.85;3.95;;;;;;;;;;5049122;28;20383;-69
2023/04/11 05:16:21;;;;;;;11.98;3.70;;;;;;;;;;5048416;28;20041;-69
2023/04/11 05:18:47;;;;;;;10.30;3.88;;;;;;;;;;5049553;28;20067;-69
2023/04/11 05:21:14;;;;;;;8.80;3.78;;;;;;;;;;5026828;28;20048;-69
2023/04/11 05:23:40;;;;;;;12.57;3.50;;;;;;;;;;5049687;28;20040;-69
2023/04/11 05:26:07;;;;;;;10.88;4.40;;;;;;;;;;5042503;28;20447;-69
2023/04/11 05:28:33;;;;;;;10.88;4.25;;;;;;;;;;5045661;28;20036;-69
2023/04/11 05:31:00;;;;;;;8.35;2.70;;;;;;;;;;5010227;28;20048;-69
2023/04/11 05:33:26;;;;;;;7.18;3.15;;;;;;;;;;5038764;28;20032;-69
2023/04/11 05:35:52;;;;;;;11.73;3.40;;;;;;;;;;5020384;28;20041;-69
2023/04/11 05:38:19;;;;;;;16.48;3.35;;;;;;;;;;5042312;28;20045;-70
2023/04/11 05:40:45;;;;;;;8.73;3.20;;;;;;;;;;5024143;28;20040;-69
2023/04/11 05:43:13;;;;;;;11.32;3.75;;;;;;;;;;5046485;28;20094;-69
2023/04/11 05:45:52;;;;;;;9.18;3.20;;;;;;;;;;5048558;28;20739;-70
2023/04/11 05:48:22;;;;;;;9.07;3.38;;;;;;;;;;5049076;28;20374;-70
2023/04/11 05:50:52;;;;;;;8.13;2.92;;;;;;;;;;5031196;28;20520;-69
2023/04/11 05:53:18;;;;;;;14.65;4.32;;;;;;;;;;5030488;28;20060;-68
2023/04/11 05:55:44;;;;;;;16.38;4.88;;;;;;;;;;5014446;28;20093;-69
2023/04/11 05:58:10;;;;;;;19.30;4.78;;;;;;;;;;5023016;28;20041;-68
2023/04/11 06:00:37;;;;;;;8.18;3.90;;;;;;;;;;5045070;28;20053;-68
2023/04/11 06:03:04;;;;;;;10.23;3.65;;;;;;;;;;5028207;28;20060;-68
2023/04/11 06:05:32;;;;;;;13.93;3.30;;;;;;;;;;5027842;28;20537;-69
2023/04/11 06:07:58;;;;;;;24.55;4.07;;;;;;;;;;5023369;28;20048;-69
2023/04/11 06:10:25;;;;;;;17.00;4.18;;;;;;;;;;5004874;28;20053;-69
2023/04/11 06:12:51;;;;;;;10.25;3.72;;;;;;;;;;5024712;28;20053;-68
2023/04/11 06:15:17;;;;;;;13.70;4.22;;;;;;;;;;5021970;28;20059;-69
2023/04/11 06:17:44;;;;;;;10.73;3.80;;;;;;;;;;5022283;28;20064;-70
2023/04/11 06:20:10;;;;;;;17.15;4.47;;;;;;;;;;4991629;28;20496;-70
2023/04/11 06:22:38;;;;;;;12.10;4.25;;;;;;;;;;5039571;28;20068;-70
2023/04/11 06:25:05;;;;;;;11.43;3.50;;;;;;;;;;5037593;28;20577;-69
2023/04/11 06:27:31;;;;;;;19.05;4.93;;;;;;;;;;5040716;28;20055;-70
2023/04/11 06:29:58;;;;;;;10.95;3.25;;;;;;;;;;5041250;28;20092;-69
2023/04/11 06:32:24;;;;;;;17.02;4.00;;;;;;;;;;5020063;28;20048;-69
2023/04/11 06:34:51;;;;;;;9.40;3.45;;;;;;;;;;5000402;28;20041;-69
2023/04/11 06:37:17;;;;;;;18.05;4.15;;;;;;;;;;5009237;28;20435;-70
2023/04/11 06:39:43;;;;;;;11.95;3.97;;;;;;;;;;5021579;28;20190;-70
2023/04/11 06:42:09;;;;;;;9.60;3.60;;;;;;;;;;5025975;28;20133;-69
2023/04/11 06:44:35;;;;;;;16.25;3.90;;;;;;;;;;5022257;28;20041;-69
2023/04/11 06:47:02;;;;;;;9.77;3.75;;;;;;;;;;5028374;28;20040;-69
2023/04/11 06:49:28;;;;;;;11.18;3.90;;;;;;;;;;5039973;28;20656;-69
2023/04/11 06:51:55;;;;;;;7.85;3.53;;;;;;;;;;5024358;28;20028;-69
2023/04/11 06:54:21;;;;;;;12.50;3.50;;;;;;;;;;5043682;28;20032;-69
2023/04/11 06:56:51;;;;;;;10.32;3.92;;;;;;;;;;5008937;28;20038;-70
2023/04/11 06:59:20;;;;;;;8.32;3.03;;;;;;;;;;5017625;28;20045;-70
2023/04/11 07:01:46;;;;;;;14.10;4.25;;;;;;;;;;5011738;28;20494;-70
2023/04/11 07:04:13;;;;;;;19.00;4.07;;;;;;;;;;5024935;28;20097;-70
2023/04/11 07:06:39;;;;;;;13.27;3.55;;;;;;;;;;5022838;28;20090;-69
2023/04/11 07:09:05;;;;;;;16.23;3.92;;;;;;;;;;5018432;28;20037;-69
2023/04/11 07:11:32;;;;;;;13.55;4.53;;;;;;;;;;5034357;28;20041;-69
2023/04/11 07:14:01;;;;;;;10.75;3.25;;;;;;;;;;5034441;28;20132;-69
2023/04/11 07:16:27;;;;;;;17.58;4.45;;;;;;;;;;5044340;28;20041;-69
2023/04/11 07:18:54;;;;;;;13.88;5.00;;;;;;;;;;5037129;28;20333;-70
2023/04/11 07:21:20;;;;;;;15.30;4.10;;;;;;;;;;5048716;28;20029;-68
2023/04/11 07:23:46;;;;;;;10.68;3.20;;;;;;;;;;5029488;28;20406;-68
2023/04/11 07:26:13;;;;;;;9.27;3.47;;;;;;;;;;5041314;28;20194;-68
2023/04/11 07:28:40;;;;;;;8.90;3.97;;;;;;;;;;5023143;28;20056;-68
2023/04/11 07:31:12;;;;;;;6.93;3.15;;;;;;;;;;5009129;28;20049;-68
2023/04/11 07:33:39;;;;;;;7.40;2.75;;;;;;;;;;5012190;28;20517;-68
2023/04/11 07:36:05;;;;;;;14.52;3.60;;;;;;;;;;5025198;28;20052;-68
2023/04/11 07:38:33;;;;;;;9.23;3.72;;;;;;;;;;5048234;28;20044;-68
2023/04/11 07:41:02;;;;;;;12.63;3.50;;;;;;;;;;5031709;28;20068;-69
2023/04/11 07:43:29;;;;;;;13.35;4.13;;;;;;;;;;5032128;28;20040;-68
2023/04/11 07:45:55;;;;;;;13.02;3.05;;;;;;;;;;5015148;28;20033;-68
2023/04/11 07:48:22;;;;;;;10.85;3.78;;;;;;;;;;5048468;28;20039;-68
2023/04/11 07:50:48;;;;;;;13.05;4.70;;;;;;;;;;5019619;28;20378;-68
2023/04/11 07:53:15;;;;;;;9.15;3.70;;;;;;;;;;5015151;28;20435;-68
2023/04/11 07:55:41;;;;;;;6.63;3.05;;;;;;;;;;5028665;28;20450;-68
2023/04/11 07:58:07;;;;;;;14.60;3.58;;;;;;;;;;5047856;28;20529;-67
2023/04/11 08:00:34;;;;;;;8.35;3.38;;;;;;;;;;5051033;28;20033;-69
2023/04/11 08:03:03;;;;;;;9.50;3.47;;;;;;;;;;5050427;28;20103;-69
2023/04/11 08:05:30;;;;;;;12.63;3.55;;;;;;;;;;5029164;28;20534;-68
2023/04/11 08:07:56;;;;;;;7.53;2.90;;;;;;;;;;5027338;28;20413;-69
2023/04/11 08:10:23;;;;;;;12.43;3.80;;;;;;;;;;5012475;28;20048;-68
2023/04/11 08:12:49;;;;;;;8.20;2.90;;;;;;;;;;5051245;28;20064;-68
2023/04/11 08:15:16;;;;;;;9.90;3.45;;;;;;;;;;5044762;28;20156;-69
2023/04/11 08:17:42;;;;;;;8.43;3.75;;;;;;;;;;5049728;28;20700;-69
2023/04/11 08:20:10;;;;;;;9.32;4.40;;;;;;;;;;5051300;28;20077;-68
2023/04/11 08:22:38;;;;;;;11.02;2.60;;;;;;;;;;5045956;28;20095;-68
2023/04/11 08:25:04;;;;;;;9.02;2.90;;;;;;;;;;5025580;28;20037;-68
2023/04/11 08:27:30;;;;;;;8.65;3.67;;;;;;;;;;5028820;28;20045;-68
2023/04/11 08:29:58;;;;;;;9.43;3.33;;;;;;;;;;5044275;28;20473;-69
2023/04/11 08:32:24;;;;;;;9.95;3.75;;;;;;;;;;5049614;28;20041;-69
2023/04/11 08:34:50;;;;;;;8.25;3.13;;;;;;;;;;5024627;28;20532;-68
2023/04/11 08:37:16;;;;;;;11.82;3.10;;;;;;;;;;5051229;28;20037;-68
2023/04/11 08:39:42;;;;;;;9.32;3.50;;;;;;;;;;5041976;28;20107;-68
2023/04/11 08:42:21;;;;;;;12.10;4.85;;;8.10;99.90;;;;;;5011313;28;20479;-68
2023/04/11 08:44:55;;;;;;;11.75;3.67;;;;;;;;;;5047013;28;20386;-69
2023/04/11 08:47:22;;;;;;;11.48;4.32;;;;;;;;;;5012702;28;20045;-68
2023/04/11 08:49:48;;;;;;;9.25;3.42;;;;;;;;;;5029291;28;20340;-68
2023/04/11 08:52:15;;;;;;;10.07;3.78;;;;;;;;;;5031041;28;20063;-68
2023/04/11 08:54:41;;;;;;;11.02;2.63;;;;;;;;;;5047464;28;20056;-68
2023/04/11 08:57:07;;;;;;;10.23;3.85;;;;;;;;;;5013016;28;20040;-69
2023/04/11 08:59:33;;;;;;;6.93;2.70;;;;;;;;;;5031496;28;20170;-69
2023/04/11 09:02:06;;;;;;;12.43;3.75;;;;;;;;;;5015576;28;20048;-69
2023/04/11 09:04:42;;;;;;;10.88;3.97;;;;;;;;;;5029499;28;20598;-68
2023/04/11 09:07:08;;;;;;;9.18;3.28;;;;;;;;;;5000249;28;20037;-69
2023/04/11 09:09:36;;;;;;;7.47;3.38;;;;;;;;;;5007966;28;20403;-69
2023/04/11 09:12:03;;;;;;;12.13;3.13;;;9.20;99.90;;;;;;5011682;28;20051;-68
2023/04/11 09:14:29;;;;;;;11.77;3.58;;;;;;;;;;4994861;28;20045;-68
2023/04/11 09:17:00;;;;;;;8.90;3.40;;;;;;;;;;5008564;28;20038;-69
2023/04/11 09:19:27;;;;;;;5.47;2.60;;;;;;;;;;5009885;28;20395;-68
2023/04/11 09:21:55;;;;;;;11.05;3.03;;;;;;;;;;5029475;28;20068;-68
2023/04/11 09:24:22;;;;;;;10.55;3.17;;;;;;;;;;5011044;28;20204;-68
2023/04/11 09:26:48;;;;;;;6.15;1.95;;;;;;;;;;5004279;28;20491;-68
2023/04/11 09:29:35;;;;;;;7.78;2.40;;;;;;;;;;5008170;28;20045;-69
2023/04/11 09:32:02;;;;;;;3.45;2.05;;;;;;;;;;4983227;28;20039;-68
2023/04/11 09:34:28;;;;;;;7.35;2.42;;;;;;;;;;5026246;28;20195;-68
2023/04/11 09:36:54;;;;;;;8.95;2.55;;;;;;;;;;5008724;28;20033;-68
2023/04/11 09:39:21;;;;;;;5.70;2.03;;;;;;;;;;5008194;28;20439;-68
2023/04/11 09:41:47;;;;;;;6.65;2.03;;;;;;;;;;5002617;28;20103;-68
2023/04/11 09:44:13;;;;;;;4.93;2.75;;;;;;;;;;5010441;28;20056;-68
2023/04/11 09:46:55;;;;;;;6.65;2.28;;;;;;;;;;5026710;28;20047;-68
2023/04/11 09:49:22;;;;;;;5.93;2.17;;;;;;;;;;5002051;28;20057;-68
2023/04/11 09:51:48;;;;;;;6.22;2.95;;;;;;;;;;5000392;28;20053;-69
2023/04/11 09:54:15;;;;;;;15.95;3.17;;;;;;;;;;5019462;28;20060;-69
2023/04/11 09:56:41;;;;;;;5.20;2.00;;;;;;;;;;5028815;28;20033;-69
2023/04/11 09:59:08;;;;;;;6.78;2.05;;;;;;;;;;5026777;28;20044;-69
2023/04/11 10:01:35;;;;;;;6.22;2.55;;;;;;;;;;5001279;28;20037;-68
2023/04/11 10:04:03;;;;;;;10.50;2.08;;;;;;;;;;5023957;28;20048;-68
2023/04/11 10:06:41;;;;;;;5.60;1.73;;;;;;;;;;5028529;28;20121;-68
2023/04/11 10:09:11;;;;;;;5.00;1.83;;;;;;;;;;5011877;28;20067;-69
2023/04/11 10:11:44;;;;;;;9.85;3.25;;;;;;;;;;5048349;28;20151;-69
2023/04/11 10:14:10;;;;;;;;;;;;;;;;;;5029732;28;20093;-69
2023/04/11 10:16:56;;;;;;;5.82;1.98;;;;;;;;;;5030070;28;19921;-68
2023/04/11 10:19:23;;;;;;;11.13;3.75;;;;;;;;;;5025636;28;20167;-71
2023/04/11 10:21:49;;;;;;;8.65;2.60;;;;;;;;;;5029896;28;20075;-68
2023/04/11 10:24:15;;;;;;;7.03;2.95;;;;;;;;;;5010096;28;20044;-68
2023/04/11 10:26:51;;;;;;;9.90;3.58;;;;;;;;;;5045647;28;20041;-68
2023/04/11 10:29:31;;;;;;;5.53;1.92;;;;;;;;;;5029363;28;20036;-69
2023/04/11 10:32:08;;;;;;;4.93;2.40;;;;;;;;;;5027901;28;20143;-69
2023/04/11 10:34:37;;;;;;;5.95;1.80;;;;;;;;;;5025606;28;20562;-69
2023/04/11 10:37:07;;;;;;;7.35;2.88;;;;;;;;;;5046790;28;20048;-69
2023/04/11 10:39:51;;;;;;;8.88;2.50;;;;;;;;;;5047402;28;20052;-69
2023/04/11 10:42:30;;;;;;;13.77;2.95;;;;;;;;;;5030013;28;20056;-68
2023/04/11 10:45:15;;;;;;;7.88;2.88;;;;;;;;;;5025697;28;20055;-69
2023/04/11 10:47:41;;;;;;;16.13;4.25;;;;;;;;;;5047452;28;20122;-68
2023/04/11 10:50:23;;;;;;;10.50;4.20;;;;;;;;;;5041220;28;20060;-68
2023/04/11 10:52:49;;;;;;;22.42;4.32;;;;;;;;;;5025373;28;20039;-68
2023/04/11 10:55:16;;;;;;;8.65;3.78;;;;;;;;;;5021497;28;20039;-69
2023/04/11 10:58:01;;;;;;;10.70;3.20;;;;;;;;;;5030206;28;20041;-68
2023/04/11 11:00:27;;;;;;;7.18;2.38;;;;;;;;;;5029696;28;20396;-68
2023/04/11 11:02:53;;;;;;;5.93;2.10;;;;;;;;;;5046958;28;20055;-68
2023/04/11 11:05:20;;;;;;;7.45;1.85;;;;;;;;;;5013954;28;20115;-68
2023/04/11 11:07:46;;;;;;;8.35;2.72;;;;;;;;;;5029254;28;20450;-69
2023/04/11 11:10:13;;;;;;;6.50;2.15;;;;;;;;;;5029456;28;20063;-68
2023/04/11 11:12:53;;;;;;;10.07;3.17;;;;;;;;;;5046764;28;20063;-68
2023/04/11 11:15:19;;;;;;;9.55;3.33;;;;;;;;;;5012711;28;20120;-69
2023/04/11 11:17:46;;;;;;;8.73;3.20;;;;;;;;;;5025490;28;20041;-69
2023/04/11 11:20:18;;;;;;;12.88;2.92;;;;;;;;;;5010328;28;20348;-68
2023/04/11 11:22:56;;;;;;;9.60;3.60;;;;;;;;;;5012227;28;20085;-68
2023/04/11 11:25:24;;;;;;;7.25;2.72;;;;;;;;;;5024594;28;20037;-69
2023/04/11 11:27:58;;;;;;;5.70;2.92;;;;;;;;;;5044625;28;20037;-69
2023/04/11 11:30:24;;;;;;;10.07;3.47;;;9.00;99.90;;;;;;5027260;28;20053;-69
2023/04/11 11:32:50;;;;;;;12.00;4.00;;;;;;;;;;5011070;28;20033;-69
2023/04/11 11:35:16;;;;;;;11.88;3.50;;;;;;;;;;5028068;28;20337;-68
2023/04/11 11:37:42;;;;;;;9.88;3.80;;;;;;;;;;5011470;28;20445;-69
2023/04/11 11:40:13;;;;;;;10.77;3.47;;;;;;;;;;4995805;28;20037;-69
2023/04/11 11:42:39;;;;;;;15.77;3.15;;;;;;;;;;5029200;28;20044;-69
2023/04/11 11:45:19;;;;;;;9.80;3.13;;;;;;;;;;4989320;28;20106;-69
2023/04/11 11:47:46;;;;;;;13.40;3.08;;;;;;;;;;5007108;28;20239;-69
2023/04/11 11:50:24;;;;;;;10.20;3.28;;;;;;;;;;5025209;28;20047;-68
2023/04/11 11:52:51;;;;;;;4.97;2.03;;;;;;;;;;4991600;28;20045;-68
2023/04/11 11:55:17;;;;;;;4.82;2.50;;;;;;;;;;5028058;28;20048;-69
2023/04/11 11:57:44;;;;;;;12.13;3.13;;;;;;;;;;5028044;28;20446;-69
2023/04/11 12:00:11;;;;;;;7.88;3.50;;;;;;;;;;5011926;28;20053;-69
2023/04/11 12:02:38;;;;;;;12.38;3.28;;;;;;;;;;5028350;28;20072;-69
2023/04/11 12:05:05;;;;;;;13.55;4.53;;;;;;;;;;5022665;28;20152;-68
2023/04/11 12:07:32;;;;;;;22.33;3.63;;;;;;;;;;5022532;28;20060;-68
2023/04/11 12:10:05;;;;;;;14.55;4.72;;;;;;;;;;5020429;28;20047;-68
2023/04/11 12:12:35;;;;;;;17.88;3.92;;;;;;;;;;5021942;28;20040;-69
2023/04/11 12:15:02;;;;;;;11.43;3.47;;;;;;;;;;5026787;28;20132;-69
2023/04/11 12:17:33;;;;;;;11.27;3.63;;;;;;;;;;5025442;28;20045;-69
2023/04/11 12:20:00;;;;;;;8.98;2.85;;;;;;;;;;5012306;28;20041;-69
2023/04/11 12:22:26;;;;;;;11.40;2.90;;;;;;;;;;5006949;28;20130;-69
2023/04/11 12:24:52;;;;;;;10.60;3.10;;;;;;;;;;5021265;28;20037;-69
2023/04/11 12:27:19;;;;;;;11.25;3.67;;;;;;;;;;5014597;28;20049;-69
2023/04/11 12:29:45;;;;;;;18.00;3.28;;;;;;;;;;5009181;28;20491;-69
2023/04/11 12:32:11;;;;;;;12.07;3.65;;;9.30;99.90;;;;;;5025902;28;20057;-69
2023/04/11 12:34:37;;;;;;;11.02;3.22;;;;;;;;;;5024027;28;20044;-68
2023/04/11 12:37:03;;;;;;;9.50;4.20;;;;;;;;;;5013180;28;20144;-68
2023/04/11 12:39:30;;;;;;;13.27;3.45;;;;;;;;;;5013763;28;20045;-69
2023/04/11 12:41:56;;;;;;;14.48;3.03;;;;;;;;;;5033368;28;20037;-69
2023/04/11 12:44:23;;;;;;;12.00;4.00;;;;;;;;;;5049460;28;20047;-69
2023/04/11 12:46:49;;;;;;;17.15;4.10;;;;;;;;;;5031936;28;20076;-69
2023/04/11 12:49:15;;;;;;;9.35;3.10;;;;;;;;;;5002683;28;20063;-68
2023/04/11 12:51:41;;;;;;;16.10;3.63;;;;;;;;;;5013784;28;20463;-68
2023/04/11 12:54:07;;;;;;;10.05;3.92;;;;;;;;;;5013131;28;20036;-69
2023/04/11 12:56:34;;;;;;;9.18;2.85;;;;;;;;;;5015380;28;20083;-68
2023/04/11 12:59:00;;;;;;;8.90;3.22;;;;;;;;;;5014587;28;20043;-68
2023/04/11 13:01:27;;;;;;;9.77;2.95;;;;;;;;;;5030518;28;20076;-68
2023/04/11 13:03:53;;;;;;;11.90;3.45;;;;;;;;;;5011515;28;20041;-69
2023/04/11 13:06:19;;;;;;;7.15;2.70;;;9.80;99.90;;;;;;5022027;28;20106;-69
2023/04/11 13:08:44;;;;;;;6.40;3.40;;;9.90;99.90;;;;;;5026485;28;20045;-68
2023/04/11 13:11:10;;;;;;;7.65;2.83;;;9.80;99.90;;;;;;5011853;28;20064;-69
2023/04/11 13:13:36;;;;;;;11.18;3.55;;;;;;;;;;5008028;28;20086;-68
2023/04/11 13:16:02;;;;;;;9.88;2.72;;;;;;;;;;5027374;28;20116;-69
2023/04/11 13:18:29;;;;;;;6.38;3.30;;;;;;;;;;5028951;28;20056;-68
2023/04/11 13:20:55;;;;;;;8.93;2.95;;;;;;;;;;5028620;28;20045;-68
2023/04/11 13:23:21;;;;;;;8.35;3.42;;;;;;;;;;5025715;28;20347;-68
2023/04/11 13:25:47;;;;;;;10.07;2.90;;;;;;;;;;5011515;28;20526;-68
2023/04/11 13:28:14;;;;;;;11.70;2.83;;;;;;;;;;5023730;28;20072;-68
2023/04/11 13:30:40;;;;;;;9.20;3.20;;;;;;;;;;5005762;28;20483;-69
2023/04/11 13:33:06;;;;;;;16.40;3.72;;;;;;;;;;5007046;28;20057;-69
2023/04/11 13:35:32;;;;;;;10.70;3.63;;;;;;;;;;5023249;28;20037;-68
2023/04/11 13:37:58;;;;;;;9.55;3.47;;;;;;;;;;4989502;28;20076;-70
2023/04/11 13:40:24;;;;;;;8.43;2.88;;;;;;;;;;5022040;28;20101;-69
2023/04/11 13:42:53;;;;;;;10.32;2.35;;;;;;;;;;5019409;28;20125;-69
2023/04/11 13:45:19;;;;;;;7.90;2.70;;;;;;;;;;5038749;28;20479;-69
2023/04/11 13:47:45;;;;;;;6.30;3.00;;;;;;;;;;5026016;28;20045;-69
2023/04/11 13:50:11;;;;;;;10.98;3.40;;;;;;;;;;5002330;28;20051;-68
2023/04/11 13:52:39;;;;;;;11.82;3.20;;;;;;;;;;5022017;28;20414;-68
2023/04/11 13:55:05;;;;;;;9.07;2.75;;;;;;;;;;5007909;28;20440;-68
2023/04/11 13:57:31;;;;;;;12.85;3.42;;;;;;;;;;4992740;28;20312;-68
2023/04/11 13:59:57;;;;;;;11.93;3.65;;;;;;;;;;4994219;28;20191;-68
2023/04/11 14:02:24;;;;;;;10.45;2.97;;;;;;;;;;5028514;28;20644;-69
2023/04/11 14:04:50;;;;;;;12.50;3.78;;;;;;;;;;5014134;28;20072;-69
2023/04/11 14:07:17;;;;;;;8.85;3.58;;;;;;;;;;4993136;28;20529;-68
2023/04/11 14:09:43;;;;;;;14.43;3.60;;;;;;;;;;4998033;28;20403;-70
2023/04/11 14:12:09;;;;;;;9.80;2.85;;;;;;;;;;5006297;28;20066;-68
2023/04/11 14:14:35;;;;;;;11.00;3.88;;;;;;;;;;5012179;28;20051;-69
2023/04/11 14:17:01;;;;;;;7.82;2.85;;;;;;;;;;5031194;28;20399;-69